Weather at Mahendranagar Airport

Public forecast

Using degrees Celsius for public forecast. Weather courtesy of forecast.io.

Closest aviation weather report (METAR) to Mahendranagar Airport

Report is more than 6 hours old.

Closest report is Pantnagar Airport, 35.7 nm (66.0 km) W. Retrieved 2020/09/23 05:30 UTC (19 hours ago):

VIPT 230530Z 11005KT 6000 FEW030 SCT100 31/25 Q1004

Closest aviation forecast (TAF) to Mahendranagar Airport

Forecast is more than 12 hours old.

Closest forecast is Pantnagar Airport, 35.7 nm (66.0 km) W. Retrieved 2016/07/10 06:00 UTC (4 years ago):

TAF VIPT 100500Z 1006/1015 24005KT 4000 HZ FEW040 SCT100 TEMPO 1010/1015 2000 -TSRA SCT030 FEW035CB BKN090